createdAt,value
2023-04-02T00:01:18.878Z,85.90
2023-04-02T00:03:45.486Z,85.54
2023-04-02T00:06:40.553Z,85.63
2023-04-02T00:09:13.195Z,85.41
2023-04-02T00:11:43.435Z,85.16
2023-04-02T00:14:26.970Z,85.38
2023-04-02T00:16:55.859Z,85.46
2023-04-02T00:19:35.779Z,85.03
2023-04-02T00:22:06.520Z,85.16
2023-04-02T00:24:33.779Z,85.25
2023-04-02T00:27:00.807Z,85.67
2023-04-02T00:29:27.209Z,85.65
2023-04-02T00:31:54.706Z,85.91
2023-04-02T00:34:36.789Z,85.17
2023-04-02T00:37:04.277Z,85.21
2023-04-02T00:39:34.378Z,84.81
2023-04-02T00:42:06.873Z,85.18
2023-04-02T00:44:38.672Z,84.95
2023-04-02T00:47:17.370Z,84.95
2023-04-02T00:49:44.091Z,85.09
2023-04-02T00:52:14.552Z,84.89
2023-04-02T00:54:48.542Z,84.51
2023-04-02T00:57:20.246Z,84.77
2023-04-02T01:00:15.797Z,85.06
2023-04-02T01:02:42.530Z,84.67
2023-04-02T01:05:15.014Z,84.40
2023-04-02T01:07:50.340Z,84.46
2023-04-02T01:10:50.408Z,84.51
2023-04-02T01:13:29.741Z,84.68
2023-04-02T01:16:15.309Z,84.83
2023-04-02T01:18:56.482Z,84.38
2023-04-02T01:21:42.520Z,84.46
2023-04-02T01:24:13.971Z,84.46
2023-04-02T01:26:57.606Z,84.21
2023-04-02T01:29:35.865Z,84.21
2023-04-02T01:32:06.401Z,84.35
2023-04-02T01:34:33.619Z,84.16
2023-04-02T01:37:11.049Z,83.74
2023-04-02T01:40:06.801Z,84.40
2023-04-02T01:42:44.645Z,84.24
2023-04-02T01:45:16.950Z,84.36
2023-04-02T01:47:44.110Z,83.67
2023-04-02T01:50:19.550Z,83.58
2023-04-02T01:52:52.323Z,83.56
2023-04-02T01:55:29.661Z,82.96
2023-04-02T01:57:57.574Z,82.93
2023-04-02T02:00:24.604Z,83.12
2023-04-02T02:02:51.848Z,83.11
2023-04-02T02:05:22.848Z,83.29
2023-04-02T02:07:51.083Z,83.15
2023-04-02T02:10:24.186Z,83.47
2023-04-02T02:12:51.329Z,82.96
2023-04-02T02:15:20.928Z,83.33
2023-04-02T02:17:48.237Z,83.15
2023-04-02T02:20:15.726Z,82.96
2023-04-02T02:22:48.560Z,83.14
2023-04-02T02:25:21.611Z,82.89
2023-04-02T02:28:06.519Z,82.75
2023-04-02T02:30:37.943Z,82.61
2023-04-02T02:33:22.196Z,82.41
2023-04-02T02:35:55.314Z,82.24
2023-04-02T02:38:34.026Z,82.72
2023-04-02T02:41:07.564Z,82.20
2023-04-02T02:43:37.196Z,82.21
2023-04-02T02:46:05.932Z,82.47
2023-04-02T02:48:39.207Z,82.75
2023-04-02T02:51:15.629Z,82.65
2023-04-02T02:53:56.158Z,82.75
2023-04-02T02:56:23.997Z,82.78
2023-04-02T02:58:53.292Z,82.83
2023-04-02T03:01:20.947Z,82.58
2023-04-02T03:03:48.797Z,83.13
2023-04-02T03:06:17.037Z,82.97
2023-04-02T03:09:17.760Z,82.47
2023-04-02T03:11:56.097Z,82.94
2023-04-02T03:14:31.354Z,83.17
2023-04-02T03:17:04.903Z,83.12
2023-04-02T03:19:37.347Z,83.01
2023-04-02T03:22:15.777Z,83.03
2023-04-02T03:25:00.882Z,82.86
2023-04-02T03:27:34.001Z,83.09
2023-04-02T03:30:42.115Z,82.99
2023-04-02T03:33:17.593Z,82.65
2023-04-02T03:36:15.660Z,82.62
2023-04-02T03:38:47.009Z,82.01
2023-04-02T03:41:31.841Z,82.36
2023-04-02T03:44:03.242Z,81.93
2023-04-02T03:46:57.925Z,81.68
2023-04-02T03:49:41.365Z,81.56
2023-04-02T03:52:15.000Z,81.55
2023-04-02T03:54:53.280Z,81.52
2023-04-02T03:57:38.262Z,81.32
2023-04-02T04:00:07.394Z,81.30
2023-04-02T04:02:44.883Z,81.02
2023-04-02T04:05:28.755Z,81.02
2023-04-02T04:08:01.356Z,81.05
2023-04-02T04:10:29.147Z,81.04
2023-04-02T04:13:03.061Z,80.27
2023-04-02T04:15:47.985Z,80.53
2023-04-02T04:18:37.913Z,80.43
2023-04-02T04:21:16.503Z,79.77
2023-04-02T04:23:50.329Z,79.69
2023-04-02T04:26:35.699Z,79.16
2023-04-02T04:29:09.738Z,79.71
2023-04-02T04:31:49.298Z,79.60
2023-04-02T04:34:29.889Z,78.63
2023-04-02T04:37:01.859Z,79.12
2023-04-02T04:39:59.903Z,77.83
2023-04-02T04:42:33.140Z,77.72
2023-04-02T04:45:08.652Z,78.37
2023-04-02T04:47:56.991Z,78.51
2023-04-02T04:50:32.833Z,78.62
2023-04-02T04:53:07.143Z,78.61
2023-04-02T04:55:43.248Z,78.84
2023-04-02T04:58:35.008Z,78.93
2023-04-02T05:01:16.790Z,78.68
2023-04-02T05:04:06.632Z,78.46
2023-04-02T05:06:45.012Z,76.86
2023-04-02T05:09:22.421Z,76.80
2023-04-02T05:12:00.045Z,75.78
2023-04-02T05:14:37.444Z,75.92
2023-04-02T05:17:25.495Z,75.59
2023-04-02T05:19:59.037Z,75.35
2023-04-02T05:22:25.400Z,74.95
2023-04-02T05:25:15.276Z,75.39
2023-04-02T05:28:17.391Z,75.58
2023-04-02T05:30:49.454Z,75.62
2023-04-02T05:33:28.440Z,75.82
2023-04-02T05:36:02.696Z,75.45
2023-04-02T05:38:33.177Z,75.48
2023-04-02T05:41:01.744Z,75.32
2023-04-02T05:43:32.292Z,75.05
2023-04-02T05:46:03.852Z,74.95
2023-04-02T05:48:40.513Z,74.84
2023-04-02T05:51:15.427Z,74.93
2023-04-02T05:53:49.135Z,74.73
2023-04-02T05:56:24.498Z,74.64
2023-04-02T05:58:55.701Z,74.43
2023-04-02T06:01:30.886Z,74.30
2023-04-02T06:04:18.880Z,74.21
2023-04-02T06:06:54.029Z,74.79
2023-04-02T06:09:37.913Z,74.04
2023-04-02T06:12:23.428Z,74.27
2023-04-02T06:14:49.894Z,74.44
2023-04-02T06:17:18.807Z,74.66
2023-04-02T06:19:46.735Z,74.50
2023-04-02T06:22:31.188Z,75.05
2023-04-02T06:25:09.290Z,74.27
2023-04-02T06:27:37.197Z,75.28
2023-04-02T06:30:07.201Z,75.23
2023-04-02T06:32:33.707Z,75.30
2023-04-02T06:35:00.219Z,74.95
2023-04-02T06:37:32.816Z,74.91
2023-04-02T06:40:00.640Z,75.22
2023-04-02T06:42:37.567Z,75.43
2023-04-02T06:45:04.625Z,75.13
2023-04-02T06:47:42.479Z,75.86
2023-04-02T06:50:33.413Z,75.65
2023-04-02T06:53:06.223Z,75.84
2023-04-02T06:55:52.613Z,75.57
2023-04-02T06:58:19.765Z,75.93
2023-04-02T07:00:49.007Z,75.80
2023-04-02T07:03:27.544Z,75.62
2023-04-02T07:05:54.773Z,75.51
2023-04-02T07:08:21.287Z,76.12
2023-04-02T07:10:47.644Z,75.89
2023-04-02T07:13:19.549Z,75.50
2023-04-02T07:15:47.515Z,76.01
2023-04-02T07:18:24.500Z,75.74
2023-04-02T07:20:52.184Z,75.94
2023-04-02T07:23:18.847Z,76.40
2023-04-02T07:25:45.261Z,76.59
2023-04-02T07:28:13.426Z,76.62
2023-04-02T07:30:39.825Z,76.89
2023-04-02T07:33:06.615Z,76.60
2023-04-02T07:35:34.691Z,76.61
2023-04-02T07:38:01.302Z,76.75
2023-04-02T07:40:27.855Z,77.02
2023-04-02T07:42:54.260Z,76.66
2023-04-02T07:45:20.924Z,77.01
2023-04-02T07:47:47.337Z,76.78
2023-04-02T07:50:14.069Z,76.59
2023-04-02T07:52:42.440Z,76.88
2023-04-02T07:55:13.618Z,77.01
2023-04-02T07:57:53.960Z,76.87
2023-04-02T08:00:20.904Z,76.90
2023-04-02T08:02:47.396Z,76.57
2023-04-02T08:05:13.984Z,77.17
2023-04-02T08:07:41.420Z,77.33
2023-04-02T08:10:10.082Z,76.51
2023-04-02T08:12:36.494Z,76.75
2023-04-02T08:15:05.849Z,76.93
2023-04-02T08:17:33.629Z,76.52
2023-04-02T08:20:00.968Z,76.33
2023-04-02T08:22:28.931Z,76.68
2023-04-02T08:24:56.300Z,76.63
2023-04-02T08:27:24.140Z,76.19
2023-04-02T08:29:51.177Z,76.26
2023-04-02T08:32:18.368Z,76.28
2023-04-02T08:34:45.326Z,75.62
2023-04-02T08:37:12.968Z,75.86
2023-04-02T08:39:40.175Z,76.67
2023-04-02T08:42:20.529Z,75.70
2023-04-02T08:44:49.894Z,76.04
2023-04-02T08:47:19.138Z,75.99
2023-04-02T08:50:00.839Z,75.73
2023-04-02T08:52:32.192Z,75.35
2023-04-02T08:55:00.472Z,75.78
2023-04-02T08:57:32.644Z,75.85
2023-04-02T09:00:10.838Z,76.10
2023-04-02T09:02:46.892Z,75.58
2023-04-02T09:05:26.415Z,75.70
2023-04-02T09:07:54.978Z,75.49
2023-04-02T09:10:25.250Z,76.23
2023-04-02T09:12:52.776Z,75.14
2023-04-02T09:15:34.220Z,75.41
2023-04-02T09:18:12.977Z,75.05
2023-04-02T09:20:40.345Z,75.26
2023-04-02T09:23:16.213Z,74.49
2023-04-02T09:26:03.065Z,74.54
2023-04-02T09:28:30.834Z,74.72
2023-04-02T09:31:22.060Z,74.67
2023-04-02T09:33:50.867Z,74.54
2023-04-02T09:36:34.671Z,73.93
2023-04-02T09:39:26.272Z,74.04
2023-04-02T09:42:04.910Z,73.74
2023-04-02T09:44:32.739Z,73.36
2023-04-02T09:47:03.517Z,73.51
2023-04-02T09:49:33.049Z,73.81
2023-04-02T09:52:08.828Z,73.80
2023-04-02T09:54:42.509Z,73.73
2023-04-02T09:57:24.985Z,73.72
2023-04-02T10:00:31.930Z,73.73
2023-04-02T10:03:17.938Z,73.21
2023-04-02T10:05:45.842Z,73.58
2023-04-02T10:08:25.248Z,74.00
2023-04-02T10:10:55.464Z,72.70
2023-04-02T10:13:38.013Z,73.46
2023-04-02T10:16:12.085Z,73.02
2023-04-02T10:18:44.444Z,73.75
2023-04-02T10:21:15.607Z,73.01
2023-04-02T10:23:42.051Z,72.59
2023-04-02T10:26:23.797Z,72.87
2023-04-02T10:29:08.634Z,71.14
2023-04-02T10:31:49.464Z,70.54
2023-04-02T10:34:43.142Z,70.49
2023-04-02T10:37:22.757Z,70.25
2023-04-02T10:39:58.481Z,71.19
2023-04-02T10:42:44.259Z,70.54
2023-04-02T10:45:32.387Z,70.36
2023-04-02T10:48:09.210Z,66.71
2023-04-02T10:50:56.662Z,68.56
2023-04-02T10:53:37.669Z,68.05
2023-04-02T10:56:09.966Z,68.74
2023-04-02T10:58:42.619Z,65.60
2023-04-02T11:01:18.019Z,66.46
2023-04-02T11:03:59.872Z,67.25
2023-04-02T11:06:37.243Z,66.56
2023-04-02T11:09:07.400Z,67.33
2023-04-02T11:11:42.502Z,64.68
2023-04-02T11:14:19.005Z,64.01
2023-04-02T11:16:47.933Z,64.91
2023-04-02T11:19:14.306Z,65.32
2023-04-02T11:21:58.754Z,65.23
2023-04-02T11:24:33.530Z,66.73
2023-04-02T11:27:11.972Z,65.57
2023-04-02T11:29:50.416Z,66.43
2023-04-02T11:32:25.065Z,65.46
2023-04-02T11:35:05.252Z,63.98
2023-04-02T11:37:44.692Z,65.33
2023-04-02T11:40:11.048Z,63.27
2023-04-02T11:42:42.480Z,63.28
2023-04-02T11:45:21.444Z,64.63
2023-04-02T11:48:00.811Z,65.17
2023-04-02T11:50:44.584Z,65.22
2023-04-02T11:53:11.410Z,64.60
2023-04-02T11:55:38.827Z,62.83
2023-04-02T11:58:42.810Z,64.01
2023-04-02T12:01:48.377Z,64.56
2023-04-02T12:04:24.699Z,63.40
2023-04-02T12:07:10.817Z,64.55
2023-04-02T12:09:45.400Z,62.73
2023-04-02T12:12:29.025Z,63.79
2023-04-02T12:14:57.653Z,63.03
2023-04-02T12:17:29.933Z,61.76
2023-04-02T12:19:59.742Z,60.99
2023-04-02T12:22:29.981Z,62.66
2023-04-02T12:25:19.966Z,63.24
2023-04-02T12:27:46.535Z,63.36
2023-04-02T12:30:22.596Z,63.94
2023-04-02T12:32:50.257Z,62.53
2023-04-02T12:35:29.518Z,63.34
2023-04-02T12:37:57.111Z,64.18
2023-04-02T12:40:24.625Z,62.31
2023-04-02T12:42:51.105Z,62.04
2023-04-02T12:45:30.699Z,62.29
2023-04-02T12:47:58.511Z,62.25
2023-04-02T12:50:25.371Z,62.16
2023-04-02T12:52:54.863Z,62.38
2023-04-02T12:55:24.150Z,60.98
2023-04-02T12:57:58.666Z,60.14
2023-04-02T13:00:25.392Z,62.24
2023-04-02T13:03:04.685Z,62.25
2023-04-02T13:05:44.380Z,61.16
2023-04-02T13:08:23.740Z,60.71
2023-04-02T13:11:01.547Z,59.94
2023-04-02T13:13:48.510Z,60.92
2023-04-02T13:16:14.862Z,58.78
2023-04-02T13:18:43.035Z,59.08
2023-04-02T13:21:29.681Z,59.97
2023-04-02T13:23:56.120Z,60.31
2023-04-02T13:26:26.160Z,59.61
2023-04-02T13:29:00.352Z,60.52
2023-04-02T13:31:27.858Z,60.49
2023-04-02T13:33:54.279Z,59.59
2023-04-02T13:36:20.703Z,58.24
2023-04-02T13:38:47.292Z,57.09
2023-04-02T13:41:23.831Z,60.61
2023-04-02T13:43:51.489Z,60.36
2023-04-02T13:46:27.912Z,58.77
2023-04-02T13:48:55.646Z,59.35
2023-04-02T13:51:25.303Z,59.57
2023-04-02T13:53:56.879Z,59.19
2023-04-02T13:56:24.563Z,60.17
2023-04-02T13:58:52.076Z,60.39
2023-04-02T14:01:21.704Z,60.88
2023-04-02T14:03:48.177Z,59.94
2023-04-02T14:06:49.213Z,58.41
2023-04-02T14:09:39.266Z,60.19
2023-04-02T14:12:34.890Z,58.94
2023-04-02T14:15:09.608Z,58.43
2023-04-02T14:17:52.618Z,59.40
2023-04-02T14:20:44.826Z,58.92
2023-04-02T14:23:41.872Z,59.11
2023-04-02T14:26:32.954Z,58.57
2023-04-02T14:29:10.894Z,58.64
2023-04-02T14:32:08.964Z,59.23
2023-04-02T14:34:46.833Z,59.52
2023-04-02T14:37:35.142Z,58.56
2023-04-02T14:40:21.329Z,59.04
2023-04-02T14:43:14.038Z,58.63
2023-04-02T14:45:55.088Z,57.55
2023-04-02T14:48:43.034Z,58.46
2023-04-02T14:51:34.570Z,57.30
2023-04-02T14:54:05.091Z,57.24
2023-04-02T14:56:39.230Z,58.37
2023-04-02T14:59:29.906Z,57.62
2023-04-02T15:02:03.554Z,56.71
2023-04-02T15:04:41.041Z,57.76
2023-04-02T15:07:24.089Z,57.93
2023-04-02T15:10:01.686Z,56.89
2023-04-02T15:12:32.730Z,55.14
2023-04-02T15:15:40.540Z,56.74
2023-04-02T15:18:16.364Z,56.34
2023-04-02T15:21:06.388Z,56.19
2023-04-02T15:23:47.374Z,56.30
2023-04-02T15:26:23.681Z,55.53
2023-04-02T15:28:58.747Z,57.51
2023-04-02T15:31:28.071Z,56.81
2023-04-02T15:34:15.038Z,56.68
2023-04-02T15:37:01.465Z,56.75
2023-04-02T15:39:41.706Z,56.19
2023-04-02T15:42:11.123Z,55.50
2023-04-02T15:44:51.098Z,56.38
2023-04-02T15:47:36.706Z,55.62
2023-04-02T15:50:30.122Z,56.55
2023-04-02T15:53:23.500Z,56.30
2023-04-02T15:55:59.537Z,55.75
2023-04-02T15:58:40.506Z,55.55
2023-04-02T16:01:31.552Z,56.76
2023-04-02T16:04:31.666Z,56.84
2023-04-02T16:07:24.066Z,56.64
2023-04-02T16:10:11.408Z,57.36
2023-04-02T16:12:40.889Z,57.22
2023-04-02T16:15:24.609Z,57.18
2023-04-02T16:17:56.024Z,56.97
2023-04-02T16:20:31.894Z,57.08
2023-04-02T16:23:13.711Z,57.46
2023-04-02T16:26:07.511Z,57.61
2023-04-02T16:28:46.308Z,56.60
2023-04-02T16:31:24.806Z,57.34
2023-04-02T16:34:09.391Z,55.90
2023-04-02T16:37:01.355Z,56.23
2023-04-02T16:39:46.206Z,56.15
2023-04-02T16:42:33.215Z,56.95
2023-04-02T16:45:34.178Z,57.27
2023-04-02T16:48:36.905Z,57.67
2023-04-02T16:51:14.458Z,58.17
2023-04-02T16:54:01.919Z,58.29
2023-04-02T16:56:37.222Z,58.52
2023-04-02T16:59:19.376Z,58.73
2023-04-02T17:02:02.310Z,58.39
2023-04-02T17:04:46.397Z,58.07
2023-04-02T17:07:31.632Z,58.03
2023-04-02T17:10:13.458Z,57.66
2023-04-02T17:12:46.645Z,59.10
2023-04-02T17:15:33.141Z,58.34
2023-04-02T17:18:01.954Z,58.95
2023-04-02T17:20:28.934Z,58.87
2023-04-02T17:22:56.106Z,58.85
2023-04-02T17:25:31.406Z,59.04
2023-04-02T17:27:57.826Z,59.18
2023-04-02T17:30:44.690Z,59.50
2023-04-02T17:33:13.569Z,59.10
2023-04-02T17:36:15.353Z,59.42
2023-04-02T17:38:53.481Z,59.01
2023-04-02T17:41:22.556Z,59.24
2023-04-02T17:43:51.990Z,59.83
2023-04-02T17:46:39.790Z,59.36
2023-04-02T17:49:32.621Z,59.48
2023-04-02T17:52:11.687Z,58.80
2023-04-02T17:55:12.303Z,59.34
2023-04-02T17:57:44.862Z,59.04
2023-04-02T18:00:11.169Z,59.15
2023-04-02T18:02:51.614Z,59.84
2023-04-02T18:05:30.958Z,59.52
2023-04-02T18:08:23.964Z,60.01
2023-04-02T18:11:10.387Z,59.73
2023-04-02T18:13:42.427Z,59.88
2023-04-02T18:16:29.645Z,60.38
2023-04-02T18:19:18.372Z,59.86
2023-04-02T18:22:20.310Z,60.45
2023-04-02T18:25:15.372Z,60.39
2023-04-02T18:27:54.767Z,60.47
2023-04-02T18:30:41.673Z,60.28
2023-04-02T18:33:31.156Z,60.24
2023-04-02T18:36:33.524Z,60.01
2023-04-02T18:39:32.831Z,60.27
2023-04-02T18:42:39.773Z,60.70
2023-04-02T18:45:38.618Z,60.83
2023-04-02T18:48:38.371Z,61.00
2023-04-02T18:51:06.953Z,60.64
2023-04-02T18:53:33.638Z,60.91
2023-04-02T18:56:07.284Z,61.03
2023-04-02T18:58:42.689Z,60.86
2023-04-02T19:01:15.355Z,61.51
2023-04-02T19:03:47.012Z,61.30
2023-04-02T19:06:22.048Z,60.90
2023-04-02T19:08:54.802Z,61.24
2023-04-02T19:11:28.646Z,60.78
2023-04-02T19:13:58.612Z,61.20
2023-04-02T19:16:39.928Z,61.23
2023-04-02T19:19:21.048Z,60.94
2023-04-02T19:22:07.850Z,61.02
2023-04-02T19:25:02.206Z,61.11
2023-04-02T19:27:47.849Z,61.46
2023-04-02T19:30:39.059Z,61.69
2023-04-02T19:33:14.251Z,61.61
2023-04-02T19:36:03.114Z,61.58
2023-04-02T19:39:01.178Z,61.97
2023-04-02T19:41:51.402Z,61.68
2023-04-02T19:44:18.299Z,61.81
2023-04-02T19:46:45.210Z,62.19
2023-04-02T19:49:19.870Z,61.93
2023-04-02T19:51:46.266Z,61.54
2023-04-02T19:54:12.711Z,62.38
2023-04-02T19:56:39.490Z,62.69
2023-04-02T19:59:16.959Z,62.42
2023-04-02T20:01:44.333Z,62.69
2023-04-02T20:04:10.935Z,62.58
2023-04-02T20:06:37.579Z,62.33
2023-04-02T20:09:04.002Z,62.90
2023-04-02T20:11:30.729Z,63.21
2023-04-02T20:13:57.136Z,62.79
2023-04-02T20:16:23.758Z,63.00
2023-04-02T20:18:50.270Z,62.85
2023-04-02T20:21:16.996Z,62.53
2023-04-02T20:23:43.380Z,62.56
2023-04-02T20:26:10.172Z,62.55
2023-04-02T20:28:36.508Z,62.87
2023-04-02T20:31:12.240Z,62.73
2023-04-02T20:33:38.989Z,62.56
2023-04-02T20:36:13.664Z,62.56
2023-04-02T20:38:40.145Z,62.57
2023-04-02T20:41:07.586Z,62.22
2023-04-02T20:43:35.860Z,62.77
2023-04-02T20:46:05.654Z,62.34
2023-04-02T20:48:33.737Z,62.58
2023-04-02T20:51:02.277Z,62.25
2023-04-02T20:53:30.349Z,62.29
2023-04-02T20:56:10.800Z,62.64
2023-04-02T20:58:38.773Z,62.24
2023-04-02T21:01:18.048Z,62.22
2023-04-02T21:03:44.888Z,61.96
2023-04-02T21:06:21.174Z,62.09
2023-04-02T21:08:48.912Z,61.92
2023-04-02T21:11:15.903Z,61.94
2023-04-02T21:13:44.151Z,61.82
2023-04-02T21:16:22.570Z,61.97
2023-04-02T21:18:51.416Z,61.93
2023-04-02T21:21:18.798Z,61.81
2023-04-02T21:23:45.531Z,61.89
2023-04-02T21:26:17.594Z,62.08
2023-04-02T21:28:45.313Z,62.10
2023-04-02T21:31:16.149Z,61.80
2023-04-02T21:33:46.453Z,62.01
2023-04-02T21:36:19.058Z,61.80
2023-04-02T21:38:47.996Z,61.93
2023-04-02T21:41:15.656Z,61.30
2023-04-02T21:43:42.715Z,61.44
2023-04-02T21:46:10.360Z,61.37
2023-04-02T21:48:36.784Z,61.29
2023-04-02T21:51:12.805Z,61.69
2023-04-02T21:53:40.256Z,61.50
2023-04-02T21:56:12.385Z,61.49
2023-04-02T21:58:38.885Z,61.89
2023-04-02T22:01:11.111Z,61.77
2023-04-02T22:03:40.688Z,61.55
2023-04-02T22:06:13.053Z,61.53
2023-04-02T22:08:40.985Z,61.56
2023-04-02T22:11:19.489Z,61.66
2023-04-02T22:13:47.270Z,61.98
2023-04-02T22:16:22.348Z,61.96
2023-04-02T22:18:50.743Z,61.99
2023-04-02T22:21:18.234Z,61.77
2023-04-02T22:23:45.867Z,61.64
2023-04-02T22:26:13.816Z,61.85
2023-04-02T22:28:40.521Z,61.80
2023-04-02T22:31:11.634Z,61.79
2023-04-02T22:33:38.412Z,61.60
2023-04-02T22:36:05.389Z,61.68
2023-04-02T22:38:32.831Z,61.77
2023-04-02T22:41:28.277Z,62.12
2023-04-02T22:43:56.369Z,61.95
2023-04-02T22:46:23.350Z,62.08
2023-04-02T22:48:50.161Z,61.93
2023-04-02T22:51:19.916Z,62.00
2023-04-02T22:53:47.163Z,61.90
2023-04-02T22:56:16.026Z,61.89
2023-04-02T22:58:43.047Z,61.74
2023-04-02T23:01:13.261Z,62.16
2023-04-02T23:03:39.933Z,61.95
2023-04-02T23:06:09.703Z,61.66
2023-04-02T23:08:36.809Z,61.69
2023-04-02T23:11:09.582Z,61.91
2023-04-02T23:13:36.854Z,61.85
2023-04-02T23:16:06.192Z,61.94
2023-04-02T23:18:34.089Z,62.27
2023-04-02T23:21:00.791Z,62.30
2023-04-02T23:23:27.878Z,62.02
2023-04-02T23:26:06.379Z,62.01
2023-04-02T23:28:33.334Z,62.17
2023-04-02T23:31:01.706Z,61.96
2023-04-02T23:33:28.117Z,62.35
2023-04-02T23:35:54.551Z,62.38
2023-04-02T23:38:21.018Z,62.14
2023-04-02T23:40:47.362Z,61.97
2023-04-02T23:43:13.777Z,62.01
2023-04-02T23:45:40.507Z,62.03
2023-04-02T23:48:07.075Z,62.27
2023-04-02T23:50:33.506Z,62.33
2023-04-02T23:52:59.840Z,62.52
2023-04-02T23:55:26.227Z,62.45
2023-04-02T23:57:52.606Z,62.47
